Brule, Wisconsin
Current Conditions -  °F | °C
As of 12:55 AM on Tuesday 21 Oct 2014 (Local Time) from KOLG Reporting Station
Overcast Overcast  
Wind Chill: 45°   Ceiling: 3300
Heat Index: 45°   Visibility: 10mi
Dew Point: 37°   Wind: 3mph
Humidity: 76%   Direction: 50°NE
Pressure: 30.11"   Gusts: NA
Location:  46.55°N, 91.58°W
Report Text: KOLG 210555Z AUTO 05003KT 10SM OVC033 07/03 A3011 RMK AO1
Loading
Personal Weather Stations






























Interactive Weather Map
Tropical Storm Tracking
New forecast layout! Learn more

10-Day Weather Forecast

Advertisements
Track Severe Weather on mobile